Nearby METAR Reports

 

KFRG - , , USA
Distance from station: SSW 12mi, 20km
Updated: 01/20/2022 9:17am
Light snow, Mist, Overcast
Light snow, Mist, Overcast
 Wind from N
Wind: N 13 mph , 20 km/h
Temperature: 34°F , 1°C
Wind Chill: 25°F , -4°C
Dew Point: 30°F , -1°C
Humidity: 87%
Barometer: 30.11 inHg , 1019.6 hPa
Summary: Light snow, Mist
Clouds: Overcast
Visibility: 1 3/4 miles , 2.8 km
Cloud details: Mostly cloudy 800 ft
Overcast 1700 ft
2022/01/20 14:17 KFRG 201417Z 01011KT 1 3/4SM -SN BR BKN008 OVC017 01/M01 A3011 RMK AO2 SFC VIS 2 RAE01SNB01 CIG 006V012 PRESRR P0001 T00111006
KISP - , , USA
Distance from station: ESE 14mi, 23km
Updated: 01/20/2022 9:07am
Light snow, Rain, Mist, Overcast
Light snow, Rain, Mist, Overcast
 Wind from N
Wind: N 13 mph , 20 km/h
Temperature: 34°F , 1°C
Wind Chill: 25°F , -4°C
Dew Point: 34°F , 1°C
Humidity: 100%
Barometer: 30.09 inHg , 1019 hPa
Summary: Light snow, Rain, Mist
Clouds: Overcast
Visibility: 1 1/2 miles , 2.4 km
Cloud details: Overcast 700 ft
2022/01/20 14:07 KISP 201407Z 36011KT 1 1/2SM -SNRA BR OVC007 01/01 A3009 RMK AO2 WSHFT 1353 SNB04 P0001 T00110006
 
KBDR - , , USA
Distance from station: NNE 21mi, 34km
Updated: 01/20/2022 9:15am
Light snow, Mist, Overcast
Light snow, Mist, Overcast
 Wind from N
Wind: N 8 mph , 13 km/h
Temperature: 34°F , 1°C
Wind Chill: 27°F , -3°C
Dew Point: 30°F , -1°C
Humidity: 87%
Barometer: 30.12 inHg , 1020 hPa
Summary: Light snow, Mist
Clouds: Overcast
Visibility: 1 1/4 miles , 2 km
Cloud details: Partly cloudy 700 ft
Overcast 1400 ft
2022/01/20 14:15 KBDR 201415Z 35007KT 1 1/4SM -SN BR SCT007 OVC014 01/M01 A3012 RMK AO2 P0000 T00061006
KHPN - , , USA
Distance from station: WNW 22mi, 35km
Updated: 01/20/2022 8:56am
Snow, Fog, Overcast
Snow, Fog, Overcast
 Wind from NNW
Wind: NNW 12 mph , 19 km/h
Temperature: 32°F , 0°C
Wind Chill: 23°F , -5°C
Dew Point: 30°F , -1°C
Humidity: 93%
Barometer: 30.09 inHg , 1019 hPa
Summary: Snow, Fog
Clouds: Overcast
Visibility: 1/2 mile , 0.8 km
Cloud details: Mostly cloudy 600 ft
Overcast 1100 ft
2022/01/20 13:56 KHPN 201356Z 34010KT 1/2SM R16/3500V4500FT SN FG BKN006 OVC011 00/M01 A3009 RMK AO2 SLP194 P0001 T00001011
 
KHWV - , , USA
Distance from station: ESE 26mi, 41km
Updated: 01/20/2022 9:22am
Snow, Fog, Overcast
Snow, Fog, Overcast
 Wind from N
Wind: N 13 mph , 20 km/h, Gust: 22 mph , 35 km/h
Temperature: 34°F , 1°C
Wind Chill: 25°F , -4°C
Dew Point: 30°F , -1°C
Humidity: 87%
Barometer: 30.11 inHg , 1019.6 hPa
Summary: Snow, Fog
Clouds: Overcast
Visibility: 1/2 mile , 0.8 km
Cloud details: Overcast 600 ft
2022/01/20 14:22 KHWV 201422Z AUTO 35011G19KT 1/2SM SN FG OVC006 01/M01 A3011 RMK AO2 RAE06SNB06 P0003 T00111011
KJFK - , , USA
Distance from station: SW 29mi, 46km
Updated: 01/20/2022 9:30am
Light rain, Snow, Overcast
Light rain, Snow, Overcast
 Wind from N
Wind: N 15 mph , 24 km/h
Temperature: 36°F , 2°C
Wind Chill: 27°F , -3°C
Dew Point: 34°F , 1°C
Humidity: 93%
Barometer: 30.13 inHg , 1020.3 hPa
Summary: Light rain, Snow
Clouds: Overcast
Visibility: 7 miles , 11 km
Cloud details: Mostly cloudy 900 ft
Overcast 2000 ft
2022/01/20 14:30 KJFK 201430Z 36013KT 7SM -RASN BKN009 OVC020 02/01 A3013 RMK AO2 SNB30 P0001 T00170006
 
KLGA - , , USA
Distance from station: WSW 29mi, 47km
Updated: 01/20/2022 9:01am
Light rain, Snow, Mist, Overcast
Light rain, Snow, Mist, Overcast
 Wind from N
Wind: N 10 mph , 17 km/h
Temperature: 36°F , 2°C
Wind Chill: 29°F , -2°C
Dew Point: 30°F , -1°C
Humidity: 81%
Barometer: 30.11 inHg , 1019.6 hPa
Summary: Light rain, Snow, Mist
Clouds: Overcast
Visibility: 3 miles , 5 km
Cloud details: Mostly cloudy 800 ft
Overcast 1800 ft
2022/01/20 14:01 KLGA 201401Z 35009KT 3SM -RASN BR BKN008 OVC018 02/M01 A3011 RMK AO2 SNB1359 P0000 T00221006